Time;durP1;ratioP1;P1;durP2;ratioP2;P2;SDS_P1;SDS_P2;PMS_P1;PMS_P2;Temp;Humidity;BMP_temperature;BMP_pressure;BME280_temperature;BME280_humidity;BME280_pressure;Samples;Min_cycle;Max_cycle;Signal;HPM_P1;HPM_P2
2021/03/26 00:00:20;;;;;;;32.28;29.92;;;9.90;74.40;;;;;;5094899;28;20238;-77
2021/03/26 00:02:47;;;;;;;31.10;28.90;;;9.90;74.10;;;;;;5094575;28;20587;-77
2021/03/26 00:05:16;;;;;;;32.85;30.58;;;9.90;76.60;;;;;;5094763;28;20461;-77
2021/03/26 00:07:42;;;;;;;32.83;29.70;;;9.90;77.90;;;;;;5094650;28;20282;-78
2021/03/26 00:10:11;;;;;;;31.80;29.55;;;9.90;80.20;;;;;;5094604;28;20215;-77
2021/03/26 00:12:38;;;;;;;31.40;29.30;;;9.90;77.30;;;;;;5094637;28;20195;-78
2021/03/26 00:15:05;;;;;;;32.95;30.40;;;10.10;75.70;;;;;;5094451;28;20445;-77
2021/03/26 00:17:33;;;;;;;31.95;29.65;;;10.10;74.10;;;;;;5094440;28;20195;-77
2021/03/26 00:19:59;;;;;;;33.17;30.55;;;10.10;73.70;;;;;;5094389;28;20215;-77
2021/03/26 00:22:26;;;;;;;33.67;31.23;;;10.00;75.90;;;;;;5094284;28;20706;-77
2021/03/26 00:24:52;;;;;;;32.38;29.98;;;10.00;79.50;;;;;;5094449;28;20191;-77
2021/03/26 00:27:19;;;;;;;32.60;30.02;;;10.00;78.80;;;;;;5093993;28;20539;-77
2021/03/26 00:29:45;;;;;;;32.40;30.10;;;10.00;75.30;;;;;;5094303;28;20275;-77
2021/03/26 00:32:12;;;;;;;33.30;31.10;;;10.10;74.10;;;;;;5094231;28;20191;-77
2021/03/26 00:34:39;;;;;;;32.20;29.85;;;10.10;73.20;;;;;;5094094;28;20214;-77
2021/03/26 00:37:06;;;;;;;33.55;30.38;;;10.20;72.60;;;;;;5094003;28;20631;-77
2021/03/26 00:39:32;;;;;;;33.63;31.23;;;10.10;73.40;;;;;;5094034;28;20302;-77
2021/03/26 00:41:58;;;;;;;32.50;30.20;;;9.90;76.50;;;;;;5093902;28;20219;-77
2021/03/26 00:44:25;;;;;;;32.47;29.88;;;9.80;75.80;;;;;;5094037;28;20253;-77
2021/03/26 00:46:51;;;;;;;31.13;29.05;;;9.70;75.60;;;;;;5093817;28;20206;-77
2021/03/26 00:49:18;;;;;;;32.05;29.70;;;9.60;75.20;;;;;;5093934;28;20245;-77
2021/03/26 00:51:45;;;;;;;31.25;29.05;;;9.60;75.60;;;;;;5093834;28;20195;-77
2021/03/26 00:54:15;;;;;;;31.10;29.00;;;9.60;75.50;;;;;;5093999;28;20564;-77
2021/03/26 00:56:42;;;;;;;32.15;29.95;;;9.60;74.80;;;;;;5093534;28;20702;-77
2021/03/26 00:59:08;;;;;;;32.25;29.52;;;9.60;76.60;;;;;;5093801;28;20215;-77
2021/03/26 01:01:35;;;;;;;31.98;29.75;;;9.50;77.30;;;;;;5093651;28;20206;-77
2021/03/26 01:04:01;;;;;;;31.98;29.50;;;9.50;76.20;;;;;;5093205;28;20253;-77
2021/03/26 01:06:27;;;;;;;31.85;29.45;;;9.40;75.50;;;;;;5093538;28;20248;-77
2021/03/26 01:08:54;;;;;;;31.90;29.60;;;9.40;75.20;;;;;;5093574;28;20222;-77
2021/03/26 01:11:25;;;;;;;31.05;28.85;;;9.30;75.40;;;;;;5093505;28;20199;-77
2021/03/26 01:13:52;;;;;;;33.72;31.05;;;9.20;80.20;;;;;;5093598;28;20273;-77
2021/03/26 01:16:19;;;;;;;33.13;30.77;;;9.10;81.20;;;;;;5093069;28;20205;-77
2021/03/26 01:18:47;;;;;;;31.75;29.63;;;9.00;78.40;;;;;;5093374;28;20206;-77
2021/03/26 01:21:16;;;;;;;31.98;29.65;;;8.90;78.00;;;;;;5093590;28;20202;-77
2021/03/26 01:23:44;;;;;;;32.20;29.98;;;8.90;77.50;;;;;;5093200;28;20553;-77
2021/03/26 01:26:12;;;;;;;31.83;29.50;;;8.80;77.30;;;;;;5093136;28;20191;-77
2021/03/26 01:28:38;;;;;;;32.75;30.25;;;8.80;80.10;;;;;;5093195;28;20206;-77
2021/03/26 01:31:05;;;;;;;32.28;29.70;;;8.70;80.40;;;;;;5093198;28;20203;-77
2021/03/26 01:33:31;;;;;;;32.05;29.75;;;8.70;82.10;;;;;;5093162;28;20195;-77
2021/03/26 01:35:58;;;;;;;32.08;29.92;;;8.60;79.70;;;;;;5092839;28;20218;-77
2021/03/26 01:38:27;;;;;;;32.35;30.10;;;8.70;79.00;;;;;;5092788;28;20202;-77
2021/03/26 01:40:56;;;;;;;33.20;30.50;;;8.70;77.90;;;;;;5092762;28;20222;-77
2021/03/26 01:43:28;;;;;;;31.83;29.42;;;8.80;77.40;;;;;;5092875;28;20630;-77
2021/03/26 01:45:56;;;;;;;30.95;28.75;;;8.80;77.20;;;;;;5092947;28;20282;-76
2021/03/26 01:48:25;;;;;;;32.38;29.75;;;8.70;77.20;;;;;;5092878;28;20236;-77
2021/03/26 01:50:52;;;;;;;32.05;29.70;;;8.70;77.20;;;;;;5092796;28;20216;-76
2021/03/26 01:53:19;;;;;;;32.42;30.10;;;8.70;77.20;;;;;;5092770;28;20206;-77
2021/03/26 01:55:47;;;;;;;32.20;29.90;;;8.70;77.20;;;;;;5092627;28;20200;-77
2021/03/26 01:58:16;;;;;;;32.85;30.13;;;8.60;77.40;;;;;;5092543;28;20201;-77
2021/03/26 02:00:46;;;;;;;32.28;29.88;;;8.60;77.50;;;;;;5092717;28;20314;-77
2021/03/26 02:03:19;;;;;;;31.15;28.73;;;8.50;81.10;;;;;;5092458;28;20222;-77
2021/03/26 02:05:47;;;;;;;33.15;30.70;;;8.50;81.40;;;;;;5092578;28;20278;-77
2021/03/26 02:08:14;;;;;;;32.55;30.10;;;8.50;79.80;;;;;;5092889;28;20234;-77
2021/03/26 02:10:41;;;;;;;30.90;28.67;;;8.50;78.70;;;;;;5092630;28;20215;-77
2021/03/26 02:13:12;;;;;;;32.03;29.83;;;8.50;78.30;;;;;;5093017;28;20671;-77
2021/03/26 02:15:42;;;;;;;31.08;28.90;;;8.40;78.40;;;;;;5092691;28;20199;-76
2021/03/26 02:18:15;;;;;;;31.75;29.35;;;8.40;78.40;;;;;;5093133;28;20203;-77
2021/03/26 02:20:46;;;;;;;30.92;28.60;;;8.40;83.00;;;;;;5093309;28;20249;-77
2021/03/26 02:23:15;;;;;;;31.23;28.77;;;8.40;81.20;;;;;;5092836;28;20308;-77
2021/03/26 02:25:42;;;;;;;30.48;28.15;;;8.50;82.10;;;;;;5092535;28;20679;-77
2021/03/26 02:28:10;;;;;;;30.17;28.15;;;8.50;79.90;;;;;;5092557;28;20683;-77
2021/03/26 02:30:42;;;;;;;30.65;28.50;;;8.60;78.80;;;;;;5092420;28;20219;-77
2021/03/26 02:33:08;;;;;;;30.48;28.30;;;8.60;78.00;;;;;;5092585;28;20736;-77
2021/03/26 02:35:37;;;;;;;30.75;28.45;;;8.50;78.10;;;;;;5092245;28;20236;-77
2021/03/26 02:38:09;;;;;;;30.45;28.00;;;8.50;78.10;;;;;;5092426;28;20580;-77
2021/03/26 02:40:41;;;;;;;30.25;27.95;;;8.40;80.00;;;;;;5092385;28;20219;-77
2021/03/26 02:43:20;;;;;;;30.52;28.33;;;8.40;81.00;;;;;;5092404;28;20227;-77
2021/03/26 02:45:52;;;;;;;31.23;28.75;;;8.40;79.70;;;;;;5092203;28;20199;-77
2021/03/26 02:48:26;;;;;;;29.98;27.90;;;8.40;79.00;;;;;;5092460;28;20203;-77
2021/03/26 02:51:00;;;;;;;30.73;28.17;;;8.30;78.90;;;;;;5094038;28;20228;-77
2021/03/26 02:53:33;;;;;;;31.67;28.98;;;8.30;79.10;;;;;;5096195;28;20190;-77
2021/03/26 02:56:07;;;;;;;31.17;28.88;;;8.30;79.90;;;;;;5095853;28;20712;-77
2021/03/26 02:58:36;;;;;;;31.10;28.92;;;8.30;80.50;;;;;;5095762;28;20286;-77
2021/03/26 03:01:08;;;;;;;30.70;28.60;;;8.30;79.70;;;;;;5096031;28;20191;-77
2021/03/26 03:03:36;;;;;;;31.50;29.35;;;8.30;79.30;;;;;;5095827;28;20216;-77
2021/03/26 03:06:07;;;;;;;30.27;28.02;;;8.30;79.00;;;;;;5095942;28;20680;-77
2021/03/26 03:08:36;;;;;;;31.23;28.85;;;8.30;78.90;;;;;;5095942;28;20191;-77
2021/03/26 03:11:11;;;;;;;29.23;27.33;;;8.40;78.30;;;;;;5095874;28;20230;-77
2021/03/26 03:13:41;;;;;;;30.20;28.10;;;8.30;78.20;;;;;;5095997;28;20191;-77
2021/03/26 03:16:19;;;;;;;29.45;27.55;;;8.20;80.00;;;;;;5095707;28;20202;-77
2021/03/26 03:18:56;;;;;;;30.70;28.40;;;8.10;81.50;;;;;;5095630;28;20601;-77
2021/03/26 03:21:30;;;;;;;32.15;29.60;;;8.00;80.90;;;;;;5095730;28;20690;-77
2021/03/26 03:24:02;;;;;;;32.00;29.40;;;8.00;80.60;;;;;;5095625;28;20218;-77
2021/03/26 03:26:38;;;;;;;30.75;28.45;;;8.00;80.00;;;;;;5095513;28;20199;-77
2021/03/26 03:29:14;;;;;;;28.98;27.08;;;8.00;81.70;;;;;;5095519;28;20305;-77
2021/03/26 03:31:48;;;;;;;29.95;27.63;;;7.90;83.80;;;;;;5095541;28;20199;-77
2021/03/26 03:34:20;;;;;;;31.10;28.65;;;7.80;83.20;;;;;;5095396;28;20210;-77
2021/03/26 03:36:51;;;;;;;30.95;28.88;;;7.70;82.30;;;;;;5095071;28;20201;-77
2021/03/26 03:39:23;;;;;;;31.45;28.77;;;7.80;81.80;;;;;;5095305;28;20772;-77
2021/03/26 03:41:59;;;;;;;31.48;29.15;;;7.80;81.40;;;;;;5095351;28;20548;-77
2021/03/26 03:44:36;;;;;;;31.75;29.00;;;7.80;81.20;;;;;;5095206;28;20205;-77
2021/03/26 03:47:09;;;;;;;30.40;27.95;;;7.80;81.90;;;;;;5094964;28;20213;-77
2021/03/26 03:49:40;;;;;;;30.52;28.10;;;7.70;83.50;;;;;;5095117;28;20218;-77
2021/03/26 03:52:12;;;;;;;31.17;28.42;;;7.70;86.20;;;;;;5095086;28;20549;-78
2021/03/26 03:54:46;;;;;;;30.27;28.13;;;7.70;83.90;;;;;;5095061;28;20244;-77
2021/03/26 03:57:18;;;;;;;30.50;28.25;;;7.70;82.40;;;;;;5094621;28;20199;-77
2021/03/26 03:59:52;;;;;;;30.17;28.17;;;7.70;82.00;;;;;;5095105;28;20219;-77
2021/03/26 04:02:23;;;;;;;30.05;27.75;;;7.70;81.30;;;;;;5094064;28;20215;-77
2021/03/26 04:04:55;;;;;;;31.65;28.85;;;7.60;81.30;;;;;;5095022;28;20194;-77
2021/03/26 04:07:26;;;;;;;29.67;27.48;;;7.70;81.10;;;;;;5094851;28;20251;-77
2021/03/26 04:09:55;;;;;;;30.00;28.00;;;7.70;81.00;;;;;;5094884;28;20214;-77
2021/03/26 04:12:29;;;;;;;30.00;27.90;;;7.70;80.70;;;;;;5094905;28;20192;-78
2021/03/26 04:15:01;;;;;;;29.90;27.80;;;7.60;80.80;;;;;;5095697;28;20285;-77
2021/03/26 04:17:31;;;;;;;31.77;29.23;;;7.50;81.30;;;;;;5094491;28;20195;-77
2021/03/26 04:20:01;;;;;;;31.27;28.98;;;7.50;81.60;;;;;;5094697;28;20569;-77
2021/03/26 04:22:31;;;;;;;31.10;28.73;;;7.50;82.00;;;;;;5094370;28;20225;-77
2021/03/26 04:25:01;;;;;;;29.95;27.75;;;7.60;81.70;;;;;;5094403;28;20199;-77
2021/03/26 04:27:36;;;;;;;32.72;30.15;;;7.60;81.40;;;;;;5094303;28;20203;-77
2021/03/26 04:30:07;;;;;;;31.45;29.23;;;7.60;81.30;;;;;;5094212;28;20231;-77
2021/03/26 04:32:33;;;;;;;32.38;30.15;;;7.60;81.50;;;;;;5094391;28;20191;-77
2021/03/26 04:35:00;;;;;;;33.75;30.80;;;7.60;81.30;;;;;;5093990;28;20675;-77
2021/03/26 04:37:31;;;;;;;31.63;29.33;;;7.60;81.70;;;;;;5093864;28;20203;-77
2021/03/26 04:40:05;;;;;;;32.63;30.42;;;7.70;86.00;;;;;;5094072;28;20227;-77
2021/03/26 04:42:42;;;;;;;32.70;30.20;;;7.70;84.40;;;;;;5094064;28;20219;-77
2021/03/26 04:45:15;;;;;;;32.25;29.75;;;7.70;83.20;;;;;;5094104;28;20194;-76
2021/03/26 04:47:48;;;;;;;34.80;32.33;;;7.70;82.10;;;;;;5093860;28;20743;-77
2021/03/26 04:50:20;;;;;;;32.00;29.60;;;7.80;81.50;;;;;;5093924;28;20223;-77
2021/03/26 04:52:52;;;;;;;33.38;30.73;;;7.80;80.90;;;;;;5093795;28;20195;-77
2021/03/26 04:55:23;;;;;;;32.63;29.85;;;7.80;81.10;;;;;;5094023;28;20207;-77
2021/03/26 04:57:55;;;;;;;33.85;31.15;;;7.80;81.20;;;;;;5093494;28;20191;-77
2021/03/26 05:00:26;;;;;;;30.50;28.40;;;7.80;80.90;;;;;;5093832;28;20215;-77
2021/03/26 05:02:56;;;;;;;31.45;29.00;;;7.90;80.70;;;;;;5093416;28;20221;-77
2021/03/26 05:05:23;;;;;;;32.67;30.08;;;7.90;80.50;;;;;;5093612;28;20199;-77
2021/03/26 05:07:54;;;;;;;31.67;29.27;;;7.90;80.50;;;;;;5093613;28;20613;-77
2021/03/26 05:10:24;;;;;;;31.55;29.25;;;7.90;80.50;;;;;;5093772;28;20242;-77
2021/03/26 05:12:56;;;;;;;33.72;31.52;;;7.80;80.70;;;;;;5093799;28;20221;-77
2021/03/26 05:15:27;;;;;;;33.28;30.75;;;7.80;80.80;;;;;;5092529;28;20191;-77
2021/03/26 05:17:58;;;;;;;32.15;29.90;;;7.80;80.90;;;;;;5093458;28;20245;-77
2021/03/26 05:20:30;;;;;;;32.20;29.42;;;7.70;81.00;;;;;;5093431;28;20215;-77
2021/03/26 05:23:01;;;;;;;33.55;31.13;;;7.70;81.10;;;;;;5093333;28;20302;-77
2021/03/26 05:25:34;;;;;;;33.47;30.42;;;7.70;81.00;;;;;;5093217;28;20205;-76
2021/03/26 05:28:05;;;;;;;31.50;29.23;;;7.70;81.10;;;;;;5093288;28;20272;-77
2021/03/26 05:30:37;;;;;;;34.20;31.40;;;7.70;81.20;;;;;;5093194;28;20226;-77
2021/03/26 05:33:09;;;;;;;34.78;32.00;;;7.70;81.40;;;;;;5093135;28;20187;-77
2021/03/26 05:35:40;;;;;;;33.13;30.67;;;7.70;81.50;;;;;;5092957;28;20203;-77
2021/03/26 05:38:13;;;;;;;34.80;32.60;;;7.70;81.30;;;;;;5093030;28;20195;-77
2021/03/26 05:41:18;;;;;;;31.83;29.50;;;7.80;81.00;;;;;;5092861;28;20211;-77
2021/03/26 05:44:10;;;;;;;32.15;29.60;;;7.80;80.90;;;;;;5092945;28;20215;-77
2021/03/26 05:46:50;;;;;;;32.75;30.25;;;7.90;80.70;;;;;;5089778;28;20199;-77
2021/03/26 05:49:21;;;;;;;33.17;30.33;;;7.90;80.70;;;;;;5092890;28;20225;-77
2021/03/26 05:52:22;;;;;;;32.50;29.90;;;7.80;80.80;;;;;;5092967;28;20671;-78
2021/03/26 05:55:00;;;;;;;31.77;29.35;;;7.90;80.70;;;;;;5024478;28;20291;-78
2021/03/26 05:57:36;;;;;;;30.70;28.45;;;8.00;80.40;;;;;;5092487;28;20209;-78
2021/03/26 06:00:29;;;;;;;32.03;29.45;;;8.10;80.20;;;;;;5092850;28;20278;-78
2021/03/26 06:03:21;;;;;;;32.97;30.77;;;8.20;80.10;;;;;;5092719;28;20706;-77
2021/03/26 06:06:31;;;;;;;33.92;31.33;;;8.20;80.30;;;;;;5092659;28;20556;-77
2021/03/26 06:09:24;;;;;;;31.83;29.42;;;8.30;80.50;;;;;;5015136;28;20228;-77
2021/03/26 06:12:19;;;;;;;32.53;30.15;;;8.40;79.70;;;;;;5093321;28;20557;-77
2021/03/26 06:15:25;;;;;;;33.55;30.63;;;8.60;79.00;;;;;;5052102;28;20203;-78
2021/03/26 06:18:09;;;;;;;32.85;30.27;;;8.70;78.20;;;;;;5017724;28;20201;-78
2021/03/26 06:20:53;;;;;;;33.72;31.35;;;8.90;77.80;;;;;;5092778;28;20214;-78
2021/03/26 06:23:46;;;;;;;36.10;32.72;;;9.00;77.60;;;;;;5092816;28;20226;-78
2021/03/26 06:26:30;;;;;;;32.38;29.80;;;9.10;77.60;;;;;;5095456;28;20198;-78
2021/03/26 06:29:08;;;;;;;34.40;31.85;;;9.20;79.50;;;;;;5096816;28;20219;-78
2021/03/26 06:32:18;;;;;;;36.95;34.25;;;9.50;77.20;;;;;;5096960;28;20210;-78
2021/03/26 06:35:07;;;;;;;34.83;32.05;;;9.80;75.90;;;;;;5096661;28;20660;-78
2021/03/26 06:37:50;;;;;;;37.42;34.63;;;10.00;75.30;;;;;;5096550;28;20206;-78
2021/03/26 06:40:29;;;;;;;35.83;33.13;;;10.10;74.20;;;;;;5096717;28;20215;-78
2021/03/26 06:43:32;;;;;;;37.35;34.17;;;10.20;77.60;;;;;;5096529;28;20215;-78
2021/03/26 06:46:24;;;;;;;35.43;32.53;;;10.20;79.60;;;;;;5096277;28;20606;-78
2021/03/26 06:49:00;;;;;;;35.50;32.50;;;10.30;77.80;;;;;;5096426;28;20450;-78
2021/03/26 06:52:11;;;;;;;37.20;33.70;;;10.40;75.40;;;;;;5096329;28;20593;-78
2021/03/26 06:55:02;;;;;;;38.57;35.60;;;10.60;73.70;;;;;;5048625;28;20457;-78
2021/03/26 06:57:43;;;;;;;37.40;34.60;;;10.80;72.70;;;;;;5096125;28;20448;-78
2021/03/26 07:00:35;;;;;;;36.50;33.57;;;10.90;73.50;;;;;;5096408;28;20497;-78
2021/03/26 07:03:19;;;;;;;36.27;33.67;;;11.10;73.00;;;;;;5097097;28;20484;-78
2021/03/26 07:06:03;;;;;;;37.50;34.63;;;11.20;72.20;;;;;;5097670;28;20570;-78
2021/03/26 07:08:53;;;;;;;36.27;33.53;;;11.20;71.20;;;;;;5096314;28;20964;-78
2021/03/26 07:11:49;;;;;;;36.67;33.67;;;11.30;70.30;;;;;;5096110;28;20445;-78
2021/03/26 07:14:34;;;;;;;37.27;34.33;;;11.50;69.80;;;;;;5097072;28;20472;-78
2021/03/26 07:17:29;;;;;;;37.70;34.60;;;11.50;73.50;;;;;;5096181;28;20452;-78
2021/03/26 07:20:40;;;;;;;36.87;33.87;;;11.60;73.00;;;;;;5098059;28;20473;-78
2021/03/26 07:23:56;;;;;;;39.20;36.10;;;11.70;71.40;;;;;;5097829;28;20564;-78
2021/03/26 07:26:32;;;;;;;37.93;34.83;;;11.80;75.80;;;;;;5097362;28;20450;-78
2021/03/26 07:32:22;;;;;;;38.43;35.37;;;12.10;69.20;;;;;;5095570;28;20483;-79
2021/03/26 07:35:29;;;;;;;37.70;34.80;;;12.30;67.40;;;;;;5063346;28;20589;-78
2021/03/26 07:38:13;;;;;;;36.77;33.97;;;12.30;67.00;;;;;;5092142;28;20453;-79
2021/03/26 07:40:51;;;;;;;37.37;34.57;;;12.40;66.80;;;;;;5095461;28;20469;-78
2021/03/26 07:43:30;;;;;;;38.13;34.93;;;12.50;66.40;;;;;;5095501;28;20492;-78
2021/03/26 07:46:20;;;;;;;35.97;33.23;;;12.50;66.30;;;;;;5095056;28;20545;-78
2021/03/26 07:49:29;;;;;;;37.17;34.43;;;12.60;66.20;;;;;;5091952;28;20461;-78
2021/03/26 07:52:03;;;;;;;36.90;34.00;;;12.50;66.00;;;;;;5013135;28;20449;-79
2021/03/26 07:55:05;;;;;;;35.00;32.30;;;12.50;66.10;;;;;;5013251;28;20460;-79
2021/03/26 07:57:50;;;;;;;36.60;33.80;;;12.60;66.40;;;;;;5073259;28;20991;-78
2021/03/26 08:00:25;;;;;;;37.97;35.07;;;12.60;66.10;;;;;;5094937;28;20469;-76
2021/03/26 08:03:18;;;;;;;38.03;35.27;;;12.70;65.80;;;;;;5094766;28;20483;-76
2021/03/26 08:05:54;;;;;;;36.00;33.40;;;12.80;65.60;;;;;;5094670;28;20544;-76
2021/03/26 08:08:47;;;;;;;37.20;34.03;;;12.80;65.20;;;;;;5094868;28;20453;-75
2021/03/26 08:11:32;;;;;;;36.90;33.93;;;13.00;64.80;;;;;;5094844;28;20449;-76
2021/03/26 08:14:21;;;;;;;36.70;33.40;;;13.00;64.80;;;;;;5094725;28;20803;-76
2021/03/26 08:17:17;;;;;;;35.00;32.33;;;13.00;64.50;;;;;;5094404;28;20814;-75
2021/03/26 08:19:59;;;;;;;36.47;33.30;;;13.20;64.10;;;;;;5094530;28;20560;-76
2021/03/26 08:22:32;;;;;;;35.57;32.77;;;13.20;64.00;;;;;;5094500;28;20459;-76
2021/03/26 08:25:17;;;;;;;34.37;31.57;;;13.20;64.00;;;;;;5094567;28;20949;-76
2021/03/26 08:27:54;;;;;;;37.40;34.50;;;13.30;63.60;;;;;;5077007;28;20840;-76
2021/03/26 08:30:45;;;;;;;36.03;33.00;;;13.40;63.60;;;;;;5094424;28;20468;-76
2021/03/26 08:33:48;;;;;;;35.70;33.00;;;13.50;63.20;;;;;;5089546;28;20954;-76
2021/03/26 08:36:33;;;;;;;36.00;33.27;;;13.50;62.90;;;;;;5093929;28;20858;-76
2021/03/26 08:39:23;;;;;;;36.17;33.50;;;13.60;62.60;;;;;;5094051;28;20560;-76
2021/03/26 08:41:57;;;;;;;37.63;34.93;;;13.50;62.50;;;;;;5094064;28;20442;-76
2021/03/26 08:44:25;;;;;;;37.43;34.30;;;13.60;62.60;;;;;;5094057;28;20477;-76
2021/03/26 08:46:55;;;;;;;36.97;34.10;;;13.70;62.00;;;;;;5094118;28;20453;-78
2021/03/26 08:49:46;;;;;;;40.63;37.27;;;13.70;62.00;;;;;;5093950;28;20534;-79
2021/03/26 08:52:48;;;;;;;38.57;35.27;;;13.80;62.00;;;;;;5094255;28;20506;-78
2021/03/26 08:55:36;;;;;;;40.30;37.20;;;13.70;62.40;;;;;;5094258;28;20941;-79
2021/03/26 08:58:24;;;;;;;38.97;35.77;;;13.80;62.40;;;;;;5093835;28;20429;-78
2021/03/26 09:01:25;;;;;;;38.07;35.00;;;13.80;62.30;;;;;;5093975;28;20508;-78
2021/03/26 09:04:05;;;;;;;36.07;33.13;;;13.80;61.70;;;;;;5093518;28;20503;-79
2021/03/26 09:06:42;;;;;;;38.43;35.23;;;13.80;61.40;;;;;;5093661;28;20475;-78
2021/03/26 09:09:26;;;;;;;36.27;33.33;;;13.80;61.70;;;;;;5093865;28;20480;-78
2021/03/26 09:12:16;;;;;;;38.43;34.73;;;13.90;60.70;;;;;;5094114;28;20796;-78
2021/03/26 09:15:09;;;;;;;37.50;34.27;;;13.90;61.40;;;;;;5093667;28;20442;-78
2021/03/26 09:17:41;;;;;;;39.43;36.13;;;14.00;60.90;;;;;;5093393;28;20471;-79
2021/03/26 09:20:19;;;;;;;39.07;35.57;;;14.20;60.90;;;;;;5093624;28;20483;-79
2021/03/26 09:23:19;;;;;;;36.93;34.13;;;14.50;60.10;;;;;;5093439;28;20832;-78
2021/03/26 09:25:47;;;;;;;38.00;34.90;;;14.70;58.50;;;;;;5093366;28;20452;-78
2021/03/26 09:28:25;;;;;;;35.47;32.77;;;14.80;57.80;;;;;;5093415;28;21038;-79
2021/03/26 09:31:00;;;;;;;36.90;33.30;;;14.90;57.30;;;;;;5093514;28;20548;-79
2021/03/26 09:33:27;;;;;;;37.10;34.17;;;15.00;57.20;;;;;;5093307;28;20514;-78
2021/03/26 09:36:00;;;;;;;34.97;32.57;;;15.10;57.20;;;;;;5093371;28;20448;-79
2021/03/26 09:38:37;;;;;;;36.30;33.40;;;15.30;56.80;;;;;;5093390;28;20457;-78
2021/03/26 09:41:20;;;;;;;35.37;32.43;;;15.40;56.80;;;;;;5093432;28;20453;-78
2021/03/26 09:43:58;;;;;;;37.47;34.67;;;15.50;56.70;;;;;;5093440;28;20504;-78
2021/03/26 09:46:37;;;;;;;36.27;33.37;;;15.60;56.70;;;;;;5093284;28;20467;-78
2021/03/26 09:49:14;;;;;;;38.70;35.93;;;15.50;56.80;;;;;;5093071;28;20977;-78
2021/03/26 09:51:50;;;;;;;37.03;33.90;;;15.70;56.40;;;;;;5093292;28;20457;-78
2021/03/26 09:54:25;;;;;;;36.73;33.70;;;15.70;56.30;;;;;;5093277;28;20445;-79
2021/03/26 09:57:06;;;;;;;37.40;34.30;;;15.80;56.30;;;;;;5092745;28;20480;-78
2021/03/26 09:59:43;;;;;;;38.90;35.43;;;15.90;56.10;;;;;;5093128;28;20479;-78
2021/03/26 10:02:22;;;;;;;36.93;33.90;;;15.90;55.90;;;;;;5097555;28;20462;-78
2021/03/26 10:05:01;;;;;;;35.33;32.83;;;16.10;55.70;;;;;;5093304;28;20977;-78
2021/03/26 10:07:40;;;;;;;35.40;32.53;;;16.20;55.10;;;;;;5092958;28;20452;-78
2021/03/26 10:13:08;;;;;;;35.90;33.30;;;16.30;54.70;;;;;;5092879;28;20436;-78
2021/03/26 10:15:38;;;;;;;36.60;33.90;;;16.50;54.40;;;;;;5092683;28;20506;-78
2021/03/26 10:18:10;;;;;;;35.47;32.77;;;16.50;54.30;;;;;;5093301;28;20452;-78
2021/03/26 10:20:43;;;;;;;37.97;35.17;;;16.70;53.50;;;;;;5092863;28;20465;-78
2021/03/26 10:23:27;;;;;;;35.17;32.67;;;16.80;53.70;;;;;;5092724;28;20585;-78
2021/03/26 10:26:02;;;;;;;35.23;32.50;;;17.00;53.80;;;;;;5092761;28;20513;-78
2021/03/26 10:28:52;;;;;;;37.30;34.27;;;17.10;53.40;;;;;;5092848;28;20453;-78
2021/03/26 10:31:29;;;;;;;36.27;33.37;;;17.30;52.40;;;;;;5092678;28;20460;-78
2021/03/26 10:33:58;;;;;;;35.33;32.73;;;17.30;52.10;;;;;;5092786;28;20528;-78
2021/03/26 10:36:31;;;;;;;33.57;31.07;;;17.30;52.40;;;;;;5092488;28;20556;-78
2021/03/26 10:39:06;;;;;;;34.67;32.07;;;17.40;52.40;;;;;;5092482;28;20978;-78
2021/03/26 10:41:38;;;;;;;32.70;30.30;;;17.50;52.10;;;;;;5092797;28;20506;-79
2021/03/26 10:44:18;;;;;;;33.10;30.90;;;17.60;51.70;;;;;;5092774;28;20477;-78
2021/03/26 10:46:50;;;;;;;33.27;30.90;;;17.70;51.10;;;;;;5092437;28;20452;-79
2021/03/26 10:49:22;;;;;;;41.50;38.10;;;17.80;50.60;;;;;;5092381;28;20494;-78
2021/03/26 10:51:52;;;;;;;32.33;30.00;;;17.90;49.30;;;;;;5092554;28;20450;-79
2021/03/26 10:54:33;;;;;;;34.00;30.90;;;17.90;48.90;;;;;;5092456;28;20463;-80
2021/03/26 10:57:18;;;;;;;32.63;30.23;;;17.90;49.00;;;;;;5092045;28;20453;-79
2021/03/26 10:59:56;;;;;;;30.83;28.70;;;18.00;48.80;;;;;;5092335;28;20514;-79
2021/03/26 11:02:42;;;;;;;31.67;29.30;;;18.10;48.50;;;;;;5092250;28;20485;-78
2021/03/26 11:05:24;;;;;;;31.73;29.30;;;18.20;48.50;;;;;;5090767;28;20452;-79
2021/03/26 11:08:18;;;;;;;31.60;29.30;;;18.40;47.60;;;;;;5092178;28;20449;-80
2021/03/26 11:10:53;;;;;;;33.30;30.60;;;18.60;47.50;;;;;;5092454;28;20880;-79
2021/03/26 11:13:46;;;;;;;31.07;28.57;;;18.40;47.80;;;;;;5096030;28;20519;-79
2021/03/26 11:16:22;;;;;;;30.20;28.10;;;18.60;46.50;;;;;;5095677;28;20445;-79
2021/03/26 11:18:56;;;;;;;29.50;27.60;;;18.80;45.80;;;;;;5095968;28;20448;-79
2021/03/26 11:21:25;;;;;;;29.07;27.17;;;18.70;45.50;;;;;;5095911;28;20444;-79
2021/03/26 11:23:58;;;;;;;28.93;26.83;;;18.60;45.50;;;;;;5095840;28;21050;-78
2021/03/26 11:26:30;;;;;;;29.50;27.47;;;18.60;45.60;;;;;;5095728;28;20860;-79
2021/03/26 11:29:04;;;;;;;29.33;27.53;;;18.70;45.30;;;;;;5095973;28;20473;-79
2021/03/26 11:31:35;;;;;;;32.73;30.93;;;18.70;45.10;;;;;;5096073;28;20460;-79
2021/03/26 11:34:10;;;;;;;28.47;26.77;;;18.80;44.50;;;;;;5097020;28;20443;-78
2021/03/26 11:37:05;;;;;;;29.37;27.47;;;18.80;44.90;;;;;;5096639;28;20445;-79
2021/03/26 11:39:50;;;;;;;30.93;28.73;;;18.90;44.70;;;;;;5101066;28;20480;-79
2021/03/26 11:42:42;;;;;;;29.40;27.50;;;18.90;45.00;;;;;;5107663;28;20456;-79
2021/03/26 11:45:31;;;;;;;29.87;27.50;;;18.80;44.60;;;;;;5099582;28;20457;-79
2021/03/26 11:48:11;;;;;;;31.17;29.07;;;18.50;44.60;;;;;;5095668;28;20558;-78
2021/03/26 11:50:42;;;;;;;32.13;29.70;;;18.30;45.20;;;;;;5095478;28;20822;-78
2021/03/26 11:53:33;;;;;;;30.33;28.23;;;18.30;45.70;;;;;;5095628;28;20453;-78
2021/03/26 11:56:25;;;;;;;30.03;28.00;;;18.30;45.70;;;;;;5096908;28;20453;-79
2021/03/26 11:59:39;;;;;;;31.10;28.90;;;18.30;45.60;;;;;;5096089;28;20458;-79
2021/03/26 12:02:26;;;;;;;31.40;29.50;;;18.20;45.40;;;;;;5095334;28;20453;-79
2021/03/26 12:05:01;;;;;;;30.67;28.67;;;17.90;45.70;;;;;;5095302;28;20565;-79
2021/03/26 12:07:36;;;;;;;31.03;28.93;;;17.80;46.30;;;;;;5095180;28;20456;-79
2021/03/26 12:10:07;;;;;;;32.80;30.43;;;18.10;46.30;;;;;;5094989;28;20468;-79
2021/03/26 12:12:43;;;;;;;31.70;29.50;;;18.20;46.30;;;;;;5095066;28;20449;-79
2021/03/26 12:15:12;;;;;;;32.00;29.57;;;18.20;46.10;;;;;;5094943;28;20953;-78
2021/03/26 12:17:45;;;;;;;30.30;28.40;;;18.20;46.10;;;;;;5094491;28;20446;-76
2021/03/26 12:20:24;;;;;;;33.57;31.17;;;18.20;46.00;;;;;;5094514;28;20473;-77
2021/03/26 12:23:09;;;;;;;32.40;30.00;;;18.30;46.10;;;;;;5093928;28;20453;-77
2021/03/26 12:25:41;;;;;;;31.63;29.53;;;18.50;46.10;;;;;;5094479;28;20543;-77
2021/03/26 12:28:18;;;;;;;33.57;31.27;;;18.50;46.10;;;;;;5094576;28;20856;-77
2021/03/26 12:30:49;;;;;;;32.17;30.07;;;18.30;46.20;;;;;;5094370;28;20477;-77
2021/03/26 12:33:27;;;;;;;32.93;30.47;;;18.30;46.70;;;;;;5094345;28;20445;-77
2021/03/26 12:35:57;;;;;;;31.67;29.60;;;18.50;46.40;;;;;;5094190;28;20461;-78
2021/03/26 12:38:33;;;;;;;31.83;29.70;;;18.80;46.10;;;;;;5094463;28;20532;-77
2021/03/26 12:41:05;;;;;;;32.73;30.53;;;19.10;45.50;;;;;;5094259;28;20793;-77
2021/03/26 12:43:45;;;;;;;29.90;27.97;;;19.30;44.80;;;;;;5095037;28;20560;-78
2021/03/26 12:46:22;;;;;;;32.20;29.80;;;19.40;44.70;;;;;;5094829;28;20449;-77
2021/03/26 12:48:54;;;;;;;30.50;28.00;;;19.60;44.40;;;;;;5094989;28;20459;-77
2021/03/26 12:51:31;;;;;;;31.53;29.40;;;19.60;44.60;;;;;;5094024;28;20449;-77
2021/03/26 12:54:02;;;;;;;30.87;28.67;;;19.50;44.50;;;;;;5093970;28;20478;-77
2021/03/26 12:56:33;;;;;;;31.80;29.50;;;19.50;44.60;;;;;;5093735;28;20464;-77
2021/03/26 12:59:17;;;;;;;32.30;30.10;;;19.60;44.80;;;;;;5093868;28;20481;-77
2021/03/26 13:01:48;;;;;;;29.90;27.90;;;19.30;44.50;;;;;;5094046;28;20457;-77
2021/03/26 13:04:33;;;;;;;30.03;28.07;;;19.30;44.40;;;;;;5093392;28;20990;-77
2021/03/26 13:07:05;;;;;;;30.67;28.47;;;19.20;44.70;;;;;;5093519;28;20461;-77
2021/03/26 13:09:37;;;;;;;29.90;27.83;;;19.30;44.80;;;;;;5093550;28;20469;-77
2021/03/26 13:12:10;;;;;;;28.53;26.73;;;19.30;44.30;;;;;;5093660;28;20458;-77
2021/03/26 13:14:45;;;;;;;28.40;26.60;;;19.30;44.10;;;;;;5093784;28;20532;-77
2021/03/26 13:17:19;;;;;;;28.70;26.90;;;19.30;42.50;;;;;;5093323;28;20453;-76
2021/03/26 13:19:47;;;;;;;29.40;27.40;;;19.40;42.60;;;;;;5093353;28;20465;-77
2021/03/26 13:22:36;;;;;;;29.03;26.93;;;19.50;43.30;;;;;;5093396;28;20445;-77
2021/03/26 13:25:13;;;;;;;30.23;28.10;;;19.50;42.60;;;;;;5093097;28;20564;-77